createdAt,value
2023-05-09T00:00:25.156Z,99067.00
2023-05-09T00:03:15.760Z,99061.00
2023-05-09T00:06:03.418Z,99049.00
2023-05-09T00:08:50.951Z,99057.00
2023-05-09T00:11:39.096Z,99050.00
2023-05-09T00:14:27.721Z,99050.00
2023-05-09T00:17:15.891Z,99039.00
2023-05-09T00:20:05.341Z,99034.00
2023-05-09T00:22:52.889Z,99037.00
2023-05-09T00:25:40.283Z,99034.00
2023-05-09T00:28:27.818Z,99038.00
2023-05-09T00:31:15.732Z,99032.00
2023-05-09T00:34:03.234Z,99031.00
2023-05-09T00:36:50.769Z,99034.00
2023-05-09T00:39:38.263Z,99029.00
2023-05-09T00:42:25.916Z,99031.00
2023-05-09T00:45:13.561Z,99028.00
2023-05-09T00:48:01.502Z,99025.00
2023-05-09T00:50:53.082Z,99021.00
2023-05-09T00:53:41.405Z,99017.00
2023-05-09T00:56:28.928Z,99025.00
2023-05-09T00:59:17.530Z,99010.00
2023-05-09T01:02:05.373Z,99011.00
2023-05-09T01:04:53.519Z,99005.00
2023-05-09T01:08:02.931Z,99003.00
2023-05-09T01:11:07.317Z,98999.00
2023-05-09T01:14:12.835Z,99006.00
2023-05-09T01:17:20.154Z,98999.00
2023-05-09T01:20:18.695Z,98999.00
2023-05-09T01:23:33.852Z,98997.00
2023-05-09T01:27:05.094Z,98989.00
2023-05-09T01:30:03.222Z,98995.00
2023-05-09T01:32:55.833Z,98996.00
2023-05-09T01:35:52.765Z,99001.00
2023-05-09T01:38:44.088Z,99003.00
2023-05-09T01:41:36.385Z,99001.00
2023-05-09T01:44:26.743Z,99003.00
2023-05-09T01:47:16.700Z,99002.00
2023-05-09T01:50:06.745Z,98998.00
2023-05-09T01:52:59.655Z,98995.00
2023-05-09T01:55:50.528Z,98994.00
2023-05-09T01:58:40.293Z,98997.00
2023-05-09T02:01:29.553Z,98995.00
2023-05-09T02:04:19.112Z,98997.00
2023-05-09T02:07:08.348Z,98994.00
2023-05-09T02:09:59.307Z,98997.00
2023-05-09T02:12:46.838Z,98993.00
2023-05-09T02:15:35.013Z,98987.00
2023-05-09T02:18:23.149Z,98994.00
2023-05-09T02:21:11.671Z,98997.00
2023-05-09T02:23:59.608Z,98997.00
2023-05-09T02:26:47.362Z,98988.00
2023-05-09T02:29:47.739Z,98985.00
2023-05-09T02:32:38.942Z,98986.00
2023-05-09T02:35:29.029Z,98990.00
2023-05-09T02:38:17.086Z,98993.00
2023-05-09T02:41:07.644Z,98985.00
2023-05-09T02:43:55.138Z,98986.00
2023-05-09T02:46:42.611Z,98983.00
2023-05-09T02:49:32.426Z,98984.00
2023-05-09T02:52:20.120Z,98989.00
2023-05-09T02:55:08.572Z,98988.00
2023-05-09T02:58:05.669Z,98971.00
2023-05-09T03:00:59.901Z,98981.00
2023-05-09T03:03:47.613Z,98987.00
2023-05-09T03:06:36.475Z,98983.00
2023-05-09T03:09:23.925Z,98980.00
2023-05-09T03:12:11.442Z,98977.00
2023-05-09T03:14:58.890Z,98973.00
2023-05-09T03:17:46.738Z,98973.00
2023-05-09T03:20:34.311Z,98969.00
2023-05-09T03:23:21.834Z,98973.00
2023-05-09T03:26:09.315Z,98978.00
2023-05-09T03:28:57.042Z,98969.00
2023-05-09T03:31:44.523Z,98961.00
2023-05-09T03:34:32.034Z,98959.00
2023-05-09T03:37:19.651Z,98966.00
2023-05-09T03:40:08.730Z,98966.00
2023-05-09T03:42:56.169Z,98968.00
2023-05-09T03:45:44.473Z,98968.00
2023-05-09T03:48:32.108Z,98972.00
2023-05-09T03:51:20.836Z,98973.00
2023-05-09T03:54:08.348Z,98982.00
2023-05-09T03:56:55.911Z,98982.00
2023-05-09T03:59:43.475Z,98977.00
2023-05-09T04:02:31.236Z,98982.00
2023-05-09T04:05:19.448Z,98995.00
2023-05-09T04:08:06.881Z,98991.00
2023-05-09T04:10:54.400Z,98984.00
2023-05-09T04:13:42.016Z,98979.00
2023-05-09T04:16:31.232Z,98986.00
2023-05-09T04:19:19.090Z,98987.00
2023-05-09T04:22:06.672Z,98987.00
2023-05-09T04:24:54.837Z,98992.00
2023-05-09T04:27:42.656Z,98993.00
2023-05-09T04:30:30.950Z,98985.00
2023-05-09T04:33:18.591Z,98986.00
2023-05-09T04:36:06.726Z,98988.00
2023-05-09T04:38:54.246Z,98985.00
2023-05-09T04:41:44.472Z,98995.00
2023-05-09T04:44:33.280Z,98988.00
2023-05-09T04:47:20.827Z,98986.00
2023-05-09T04:50:09.225Z,98996.00
2023-05-09T04:52:56.695Z,98977.00
2023-05-09T04:55:44.223Z,98983.00
2023-05-09T04:58:33.337Z,98983.00
2023-05-09T05:01:20.992Z,98982.00
2023-05-09T05:04:08.550Z,98980.00
2023-05-09T05:06:56.288Z,98977.00
2023-05-09T05:09:43.792Z,98981.00
2023-05-09T05:12:31.379Z,98982.00
2023-05-09T05:15:19.760Z,98982.00
2023-05-09T05:18:07.294Z,98981.00
2023-05-09T05:20:54.832Z,98982.00
2023-05-09T05:23:42.439Z,98983.00
2023-05-09T05:26:30.077Z,98983.00
2023-05-09T05:29:18.018Z,98990.00
2023-05-09T05:32:05.720Z,98982.00
2023-05-09T05:34:53.090Z,98978.00
2023-05-09T05:37:41.707Z,98982.00
2023-05-09T05:40:29.288Z,98983.00
2023-05-09T05:43:16.892Z,98983.00
2023-05-09T05:46:04.977Z,98981.00
2023-05-09T05:48:52.516Z,98981.00
2023-05-09T05:51:39.934Z,98977.00
2023-05-09T05:54:27.421Z,98979.00
2023-05-09T05:57:14.881Z,98972.00
2023-05-09T06:00:05.822Z,98974.00
2023-05-09T06:02:53.517Z,98983.00
2023-05-09T06:05:46.632Z,98985.00
2023-05-09T06:08:34.114Z,98983.00
2023-05-09T06:11:22.013Z,98967.00
2023-05-09T06:14:09.855Z,98968.00
2023-05-09T06:16:58.318Z,98961.00
2023-05-09T06:19:45.951Z,98964.00
2023-05-09T06:22:33.344Z,98959.00
2023-05-09T06:25:21.185Z,98954.00
2023-05-09T06:28:09.204Z,98960.00
2023-05-09T06:30:57.154Z,98967.00
2023-05-09T06:33:44.705Z,98956.00
2023-05-09T06:36:35.340Z,98955.00
2023-05-09T06:39:22.889Z,98953.00
2023-05-09T06:42:10.416Z,98950.00
2023-05-09T06:44:58.064Z,98943.00
2023-05-09T06:47:45.674Z,98937.00
2023-05-09T06:50:33.275Z,98936.00
2023-05-09T06:53:20.952Z,98933.00
2023-05-09T06:56:08.590Z,98938.00
2023-05-09T06:58:56.168Z,98933.00
2023-05-09T07:01:43.744Z,98931.00
2023-05-09T07:04:31.352Z,98930.00
2023-05-09T07:07:18.879Z,98931.00
2023-05-09T07:10:11.766Z,98925.00
2023-05-09T07:12:59.668Z,98920.00
2023-05-09T07:15:47.388Z,98924.00
2023-05-09T07:18:34.879Z,98926.00
2023-05-09T07:21:22.404Z,98928.00
2023-05-09T07:24:10.190Z,98918.00
2023-05-09T07:26:57.683Z,98924.00
2023-05-09T07:29:45.191Z,98925.00
2023-05-09T07:32:33.041Z,98918.00
2023-05-09T07:35:21.348Z,98906.00
2023-05-09T07:38:08.901Z,98898.00
2023-05-09T07:40:56.395Z,98899.00
2023-05-09T07:43:43.864Z,98890.00
2023-05-09T07:46:31.417Z,98878.00
2023-05-09T07:49:18.844Z,98893.00
2023-05-09T07:52:06.553Z,98888.00
2023-05-09T07:54:54.794Z,98878.00
2023-05-09T07:57:42.240Z,98880.00
2023-05-09T08:00:32.480Z,98865.00
2023-05-09T08:03:21.201Z,98864.00
2023-05-09T08:06:09.817Z,98866.00
2023-05-09T08:08:57.296Z,98867.00
2023-05-09T08:11:45.401Z,98859.00
2023-05-09T08:14:32.965Z,98864.00
2023-05-09T08:17:20.521Z,98855.00
2023-05-09T08:20:09.211Z,98851.00
2023-05-09T08:22:56.665Z,98849.00
2023-05-09T08:25:44.172Z,98845.00
2023-05-09T08:28:31.608Z,98842.00
2023-05-09T08:31:19.077Z,98843.00
2023-05-09T08:34:06.583Z,98839.00
2023-05-09T08:36:54.173Z,98832.00
2023-05-09T08:39:41.799Z,98837.00
2023-05-09T08:42:32.087Z,98842.00
2023-05-09T08:45:29.337Z,98837.00
2023-05-09T08:48:17.864Z,98833.00
2023-05-09T08:51:07.167Z,98824.00
2023-05-09T08:53:55.177Z,98821.00
2023-05-09T08:56:43.123Z,98814.00
2023-05-09T08:59:33.303Z,98816.00
2023-05-09T09:02:22.070Z,98812.00
2023-05-09T09:05:23.731Z,98819.00
2023-05-09T09:08:18.665Z,98813.00
2023-05-09T09:11:07.472Z,98805.00
2023-05-09T09:14:00.380Z,98813.00
2023-05-09T09:16:50.281Z,98799.00
2023-05-09T09:19:41.321Z,98794.00
2023-05-09T09:22:34.258Z,98795.00
2023-05-09T09:25:21.722Z,98793.00
2023-05-09T09:28:09.386Z,98780.00
2023-05-09T09:30:57.301Z,98772.00
2023-05-09T09:33:44.763Z,98760.00
2023-05-09T09:36:33.106Z,98771.00
2023-05-09T09:39:22.184Z,98763.00
2023-05-09T09:42:13.671Z,98761.00
2023-05-09T09:45:09.180Z,98762.00
2023-05-09T09:47:56.664Z,98765.00
2023-05-09T09:50:44.157Z,98754.00
2023-05-09T09:53:39.590Z,98756.00
2023-05-09T09:56:50.128Z,98752.00
2023-05-09T09:59:37.666Z,98751.00
2023-05-09T10:02:25.510Z,98737.00
2023-05-09T10:05:22.340Z,98728.00
2023-05-09T10:08:10.113Z,98731.00
2023-05-09T10:10:59.893Z,98721.00
2023-05-09T10:13:47.625Z,98726.00
2023-05-09T10:16:43.739Z,98726.00
2023-05-09T10:19:33.169Z,98709.00
2023-05-09T10:22:22.358Z,98702.00
2023-05-09T10:25:20.085Z,98711.00
2023-05-09T10:28:23.924Z,98705.00
2023-05-09T10:31:25.439Z,98706.00
2023-05-09T10:34:15.502Z,98687.00
2023-05-09T10:37:03.869Z,98684.00
2023-05-09T10:39:53.955Z,98681.00
2023-05-09T10:42:45.792Z,98673.00
2023-05-09T10:45:34.877Z,98666.00
2023-05-09T10:48:24.301Z,98663.00
2023-05-09T10:51:13.997Z,98663.00
2023-05-09T10:54:01.550Z,98654.00
2023-05-09T10:56:49.034Z,98659.00
2023-05-09T10:59:41.024Z,98652.00
2023-05-09T11:02:32.943Z,98638.00
2023-05-09T11:05:20.948Z,98642.00
2023-05-09T11:08:33.412Z,98631.00
2023-05-09T11:11:27.150Z,98630.00
2023-05-09T11:14:49.631Z,98623.00
2023-05-09T11:17:40.241Z,98628.00
2023-05-09T11:20:29.558Z,98619.00
2023-05-09T11:23:19.819Z,98622.00
2023-05-09T11:26:09.049Z,98606.00
2023-05-09T11:28:59.897Z,98606.00
2023-05-09T11:32:17.071Z,98595.00
2023-05-09T11:35:10.202Z,98586.00
2023-05-09T11:38:03.037Z,98592.00
2023-05-09T11:40:55.084Z,98581.00
2023-05-09T11:43:45.012Z,98568.00
2023-05-09T11:46:32.575Z,98567.00
2023-05-09T11:49:20.764Z,98572.00
2023-05-09T11:52:08.524Z,98572.00
2023-05-09T11:54:55.984Z,98561.00
2023-05-09T11:57:50.071Z,98564.00
2023-05-09T12:00:45.837Z,98546.00
2023-05-09T12:03:33.617Z,98546.00
2023-05-09T12:06:21.941Z,98535.00
2023-05-09T12:09:10.457Z,98537.00
2023-05-09T12:11:57.946Z,98522.00
2023-05-09T12:14:45.866Z,98527.00
2023-05-09T12:17:33.492Z,98520.00
2023-05-09T12:20:20.990Z,98518.00
2023-05-09T12:23:11.770Z,98509.00
2023-05-09T12:25:59.249Z,98506.00
2023-05-09T12:28:49.105Z,98492.00
2023-05-09T12:31:37.393Z,98499.00
2023-05-09T12:34:25.570Z,98480.00
2023-05-09T12:37:21.515Z,98490.00
2023-05-09T12:40:18.475Z,98489.00
2023-05-09T12:43:07.406Z,98483.00
2023-05-09T12:45:55.147Z,98478.00
2023-05-09T12:48:45.242Z,98463.00
2023-05-09T12:51:32.742Z,98469.00
2023-05-09T12:54:22.759Z,98459.00
2023-05-09T12:57:23.391Z,98448.00
2023-05-09T13:00:12.495Z,98454.00
2023-05-09T13:03:00.451Z,98451.00
2023-05-09T13:06:02.282Z,98440.00
2023-05-09T13:09:02.942Z,98433.00
2023-05-09T13:11:51.983Z,98421.00
2023-05-09T13:14:39.584Z,98425.00
2023-05-09T13:17:27.099Z,98412.00
2023-05-09T13:20:15.420Z,98410.00
2023-05-09T13:23:03.247Z,98405.00
2023-05-09T13:25:51.558Z,98391.00
2023-05-09T13:28:39.064Z,98381.00
2023-05-09T13:31:26.596Z,98393.00
2023-05-09T13:34:14.163Z,98380.00
2023-05-09T13:37:01.610Z,98384.00
2023-05-09T13:39:49.522Z,98375.00
2023-05-09T13:42:37.078Z,98376.00
2023-05-09T13:45:24.618Z,98358.00
2023-05-09T13:48:12.075Z,98353.00
2023-05-09T13:51:01.280Z,98349.00
2023-05-09T13:53:48.846Z,98340.00
2023-05-09T13:56:36.427Z,98343.00
2023-05-09T13:59:24.139Z,98346.00
2023-05-09T14:02:11.722Z,98338.00
2023-05-09T14:04:59.325Z,98323.00
2023-05-09T14:07:47.727Z,98321.00
2023-05-09T14:10:35.268Z,98319.00
2023-05-09T14:13:23.171Z,98315.00
2023-05-09T14:16:10.918Z,98317.00
2023-05-09T14:18:58.626Z,98324.00
2023-05-09T14:21:49.159Z,98312.00
2023-05-09T14:24:36.753Z,98299.00
2023-05-09T14:27:25.255Z,98297.00
2023-05-09T14:30:13.691Z,98296.00
2023-05-09T14:33:01.463Z,98287.00
2023-05-09T14:35:49.975Z,98282.00
2023-05-09T14:38:37.758Z,98272.00
2023-05-09T14:41:25.317Z,98284.00
2023-05-09T14:44:13.285Z,98272.00
2023-05-09T14:47:00.853Z,98270.00
2023-05-09T14:49:48.341Z,98268.00
2023-05-09T14:52:35.902Z,98266.00
2023-05-09T14:55:23.668Z,98260.00
2023-05-09T14:58:13.440Z,98260.00
2023-05-09T15:01:01.544Z,98254.00
2023-05-09T15:03:49.178Z,98239.00
2023-05-09T15:06:36.810Z,98234.00
2023-05-09T15:09:24.353Z,98242.00
2023-05-09T15:12:11.857Z,98242.00
2023-05-09T15:15:16.672Z,98236.00
2023-05-09T15:18:04.210Z,98233.00
2023-05-09T15:20:52.215Z,98218.00
2023-05-09T15:23:39.813Z,98229.00
2023-05-09T15:26:27.318Z,98226.00
2023-05-09T15:29:14.850Z,98232.00
2023-05-09T15:32:02.783Z,98219.00
2023-05-09T15:34:50.579Z,98220.00
2023-05-09T15:37:38.551Z,98216.00
2023-05-09T15:40:26.410Z,98218.00
2023-05-09T15:43:13.892Z,98212.00
2023-05-09T15:46:01.992Z,98206.00
2023-05-09T15:48:49.594Z,98200.00
2023-05-09T15:51:37.185Z,98198.00
2023-05-09T15:54:27.761Z,98206.00
2023-05-09T15:57:16.883Z,98204.00
2023-05-09T16:00:05.642Z,98197.00
2023-05-09T16:02:53.314Z,98191.00
2023-05-09T16:05:41.159Z,98188.00
2023-05-09T16:08:28.793Z,98198.00
2023-05-09T16:11:16.275Z,98194.00
2023-05-09T16:14:06.904Z,98184.00
2023-05-09T16:16:54.651Z,98186.00
2023-05-09T16:19:42.523Z,98171.00
2023-05-09T16:22:30.142Z,98177.00
2023-05-09T16:25:18.177Z,98181.00
2023-05-09T16:28:07.234Z,98172.00
2023-05-09T16:30:54.854Z,98175.00
2023-05-09T16:33:42.285Z,98175.00
2023-05-09T16:36:30.485Z,98167.00
2023-05-09T16:39:18.427Z,98158.00
2023-05-09T16:42:06.051Z,98171.00
2023-05-09T16:44:53.562Z,98156.00
2023-05-09T16:47:41.089Z,98155.00
2023-05-09T16:50:29.013Z,98157.00
2023-05-09T16:53:18.968Z,98163.00
2023-05-09T16:56:08.079Z,98152.00
2023-05-09T16:58:55.568Z,98146.00
2023-05-09T17:01:43.687Z,98145.00
2023-05-09T17:04:31.433Z,98141.00
2023-05-09T17:07:19.405Z,98141.00
2023-05-09T17:10:07.568Z,98144.00
2023-05-09T17:12:55.264Z,98136.00
2023-05-09T17:15:42.978Z,98142.00
2023-05-09T17:18:37.580Z,98139.00
2023-05-09T17:21:26.024Z,98142.00
2023-05-09T17:24:14.065Z,98139.00
2023-05-09T17:27:02.084Z,98131.00
2023-05-09T17:29:50.458Z,98140.00
2023-05-09T17:32:38.020Z,98135.00
2023-05-09T17:35:26.045Z,98118.00
2023-05-09T17:38:13.551Z,98131.00
2023-05-09T17:41:00.958Z,98135.00
2023-05-09T17:43:48.480Z,98140.00
2023-05-09T17:46:35.966Z,98121.00
2023-05-09T17:49:23.689Z,98129.00
2023-05-09T17:52:11.174Z,98117.00
2023-05-09T17:54:58.948Z,98115.00
2023-05-09T17:57:47.432Z,98124.00
2023-05-09T18:00:35.267Z,98122.00
2023-05-09T18:03:22.970Z,98122.00
2023-05-09T18:06:10.510Z,98118.00
2023-05-09T18:08:58.028Z,98114.00
2023-05-09T18:11:45.579Z,98113.00
2023-05-09T18:14:33.102Z,98108.00
2023-05-09T18:17:20.596Z,98101.00
2023-05-09T18:20:08.880Z,98101.00
2023-05-09T18:22:59.578Z,98094.00
2023-05-09T18:25:48.486Z,98099.00
2023-05-09T18:28:42.128Z,98092.00
2023-05-09T18:31:31.666Z,98091.00
2023-05-09T18:34:19.354Z,98097.00
2023-05-09T18:37:07.214Z,98100.00
2023-05-09T18:39:54.908Z,98105.00
2023-05-09T18:42:42.724Z,98104.00
2023-05-09T18:45:30.858Z,98095.00
2023-05-09T18:48:18.374Z,98103.00
2023-05-09T18:51:06.164Z,98079.00
2023-05-09T18:53:53.833Z,98101.00
2023-05-09T18:56:42.467Z,98089.00
2023-05-09T18:59:29.947Z,98089.00
2023-05-09T19:02:18.420Z,98091.00
2023-05-09T19:05:09.731Z,98094.00
2023-05-09T19:07:59.031Z,98092.00
2023-05-09T19:10:46.569Z,98089.00
2023-05-09T19:13:38.325Z,98087.00
2023-05-09T19:16:26.870Z,98076.00
2023-05-09T19:19:14.562Z,98085.00
2023-05-09T19:22:02.166Z,98072.00
2023-05-09T19:24:51.586Z,98068.00
2023-05-09T19:27:39.037Z,98063.00
2023-05-09T19:30:26.537Z,98082.00
2023-05-09T19:33:14.102Z,98074.00
2023-05-09T19:36:01.634Z,98074.00
2023-05-09T19:38:49.104Z,98067.00
2023-05-09T19:41:36.709Z,98061.00
2023-05-09T19:44:24.972Z,98064.00
2023-05-09T19:47:12.437Z,98066.00
2023-05-09T19:50:00.188Z,98067.00
2023-05-09T19:52:47.695Z,98054.00
2023-05-09T19:55:35.211Z,98051.00
2023-05-09T19:58:22.867Z,98053.00
2023-05-09T20:01:10.484Z,98047.00
2023-05-09T20:03:58.038Z,98049.00
2023-05-09T20:06:46.103Z,98039.00
2023-05-09T20:09:33.648Z,98041.00
2023-05-09T20:12:21.505Z,98046.00
2023-05-09T20:15:09.694Z,98045.00
2023-05-09T20:17:57.427Z,98031.00
2023-05-09T20:20:44.989Z,98041.00
2023-05-09T20:23:32.604Z,98044.00
2023-05-09T20:26:20.142Z,98045.00
2023-05-09T20:29:08.043Z,98040.00
2023-05-09T20:31:55.727Z,98044.00
2023-05-09T20:34:43.302Z,98048.00
2023-05-09T20:37:30.736Z,98040.00
2023-05-09T20:40:18.571Z,98054.00
2023-05-09T20:43:06.204Z,98054.00
2023-05-09T20:45:54.204Z,98049.00
2023-05-09T20:48:41.723Z,98045.00
2023-05-09T20:51:29.159Z,98029.00
2023-05-09T20:54:17.864Z,98037.00
2023-05-09T20:57:05.410Z,98033.00
2023-05-09T20:59:52.926Z,98027.00
2023-05-09T21:02:40.594Z,98015.00
2023-05-09T21:05:28.220Z,98022.00
2023-05-09T21:08:15.686Z,98027.00
2023-05-09T21:11:03.120Z,98014.00
2023-05-09T21:13:50.794Z,98024.00
2023-05-09T21:16:38.659Z,98022.00
2023-05-09T21:19:27.635Z,98015.00
2023-05-09T21:22:15.114Z,98021.00
2023-05-09T21:25:02.567Z,98015.00
2023-05-09T21:27:50.505Z,98024.00
2023-05-09T21:30:37.958Z,98006.00
2023-05-09T21:33:25.786Z,98008.00
2023-05-09T21:36:13.263Z,98003.00
2023-05-09T21:39:00.818Z,98012.00
2023-05-09T21:41:48.297Z,98011.00
2023-05-09T21:44:36.487Z,97995.00
2023-05-09T21:47:24.082Z,97998.00
2023-05-09T21:50:11.856Z,98002.00
2023-05-09T21:53:00.489Z,97994.00
2023-05-09T21:55:47.946Z,98002.00
2023-05-09T21:58:35.467Z,97992.00
2023-05-09T22:01:22.970Z,97995.00
2023-05-09T22:04:10.607Z,97991.00
2023-05-09T22:06:58.033Z,97991.00
2023-05-09T22:09:45.467Z,97987.00
2023-05-09T22:12:33.775Z,97995.00
2023-05-09T22:15:21.416Z,97992.00
2023-05-09T22:18:08.967Z,97990.00
2023-05-09T22:20:56.461Z,97989.00
2023-05-09T22:23:44.297Z,97980.00
2023-05-09T22:26:31.958Z,97980.00
2023-05-09T22:29:19.481Z,97984.00
2023-05-09T22:32:08.375Z,97980.00
2023-05-09T22:34:56.945Z,97976.00
2023-05-09T22:37:44.412Z,97972.00
2023-05-09T22:40:32.243Z,97977.00
2023-05-09T22:43:20.391Z,97967.00
2023-05-09T22:46:08.123Z,97965.00
2023-05-09T22:48:55.644Z,97962.00
2023-05-09T22:51:43.110Z,97957.00
2023-05-09T22:54:30.681Z,97959.00
2023-05-09T22:57:19.266Z,97966.00
2023-05-09T23:00:08.198Z,97961.00
2023-05-09T23:02:55.795Z,97967.00
2023-05-09T23:05:43.527Z,97960.00
2023-05-09T23:08:31.083Z,97963.00
2023-05-09T23:11:18.652Z,97967.00
2023-05-09T23:14:06.752Z,97964.00
2023-05-09T23:16:54.305Z,97962.00
2023-05-09T23:19:41.779Z,97968.00
2023-05-09T23:22:31.443Z,97963.00
2023-05-09T23:25:19.163Z,97956.00
2023-05-09T23:28:06.781Z,97955.00
2023-05-09T23:30:54.871Z,97949.00
2023-05-09T23:33:42.444Z,97940.00
2023-05-09T23:36:29.919Z,97937.00
2023-05-09T23:39:17.358Z,97941.00
2023-05-09T23:42:05.013Z,97932.00
2023-05-09T23:44:52.507Z,97924.00
2023-05-09T23:47:39.962Z,97924.00
2023-05-09T23:50:27.460Z,97920.00
2023-05-09T23:53:14.902Z,97921.00
2023-05-09T23:56:03.231Z,97907.00
2023-05-09T23:58:50.714Z,97910.00
